Time;durP1;ratioP1;P1;durP2;ratioP2;P2;SDS_P1;SDS_P2;PMS_P1;PMS_P2;Temp;Humidity;BMP_temperature;BMP_pressure;BME280_temperature;BME280_humidity;BME280_pressure;Samples;Min_cycle;Max_cycle;Signal;HPM_P1;HPM_P2
2022/08/11 00:00:45;;;;;;;2.70;2.00;;;19.00;58.20;;;;;;5195275;28;20457;-47
2022/08/11 00:03:17;;;;;;;2.43;1.70;;;18.90;58.30;;;;;;5201999;28;20861;-48
2022/08/11 00:05:52;;;;;;;4.23;1.70;;;18.90;58.40;;;;;;5200298;28;20470;-46
2022/08/11 00:08:29;;;;;;;1.40;1.40;;;18.80;58.50;;;;;;5214505;28;20425;-48
2022/08/11 00:11:08;;;;;;;1.57;1.47;;;18.80;58.60;;;;;;5202966;28;20458;-48
2022/08/11 00:13:44;;;;;;;1.90;1.90;;;18.70;58.90;;;;;;5212753;28;20439;-49
2022/08/11 00:16:16;;;;;;;6.80;1.93;;;18.70;59.10;;;;;;5202477;28;20445;-48
2022/08/11 00:18:53;;;;;;;2.40;2.20;;;18.70;59.10;;;;;;5219454;28;20434;-48
2022/08/11 00:21:26;;;;;;;2.27;1.93;;;18.60;59.30;;;;;;5200189;28;20485;-48
2022/08/11 00:23:59;;;;;;;1.67;1.67;;;18.60;59.50;;;;;;5207452;28;20454;-48
2022/08/11 00:26:31;;;;;;;3.37;1.90;;;18.60;59.60;;;;;;5208289;28;20926;-49
2022/08/11 00:29:10;;;;;;;2.20;2.10;;;18.50;59.80;;;;;;5205388;28;20501;-48
2022/08/11 00:31:54;;;;;;;6.63;2.07;;;18.50;59.90;;;;;;5196526;28;20450;-47
2022/08/11 00:34:32;;;;;;;5.60;1.97;;;18.40;60.10;;;;;;5192797;28;20526;-47
2022/08/11 00:37:09;;;;;;;4.17;2.07;;;18.40;60.40;;;;;;5193995;28;20867;-49
2022/08/11 00:39:45;;;;;;;1.97;1.87;;;18.30;60.70;;;;;;5193944;28;20438;-49
2022/08/11 00:42:29;;;;;;;2.57;1.77;;;18.30;61.00;;;;;;5196296;28;20465;-49
2022/08/11 00:45:06;;;;;;;5.50;1.97;;;18.30;61.10;;;;;;5203845;28;20454;-49
2022/08/11 00:48:10;;;;;;;1.80;1.70;;;18.20;61.40;;;;;;5214943;28;20443;-48
2022/08/11 00:50:50;;;;;;;3.40;1.30;;;18.10;61.90;;;;;;5201390;28;20954;-48
2022/08/11 00:53:39;;;;;;;1.63;1.63;;;18.10;62.40;;;;;;5202562;28;20507;-48
2022/08/11 00:56:30;;;;;;;2.10;1.90;;;18.10;62.70;;;;;;5204795;28;20438;-48
2022/08/11 00:59:04;;;;;;;2.50;1.60;;;18.10;63.60;;;;;;5200444;28;20509;-48
2022/08/11 01:01:49;;;;;;;2.63;2.43;;;18.10;63.30;;;;;;5225855;23;20482;-50
2022/08/11 01:05:01;;;;;;;2.87;2.00;;;18.00;63.80;;;;;;5220228;28;20473;-50
2022/08/11 01:07:53;;;;;;;1.93;1.80;;;18.00;64.30;;;;;;5200696;28;20516;-50
2022/08/11 01:10:58;;;;;;;1.67;1.43;;;18.00;64.70;;;;;;5217162;28;20429;-50
2022/08/11 01:13:37;;;;;;;5.77;2.03;;;18.00;65.30;;;;;;5211021;28;20442;-50
2022/08/11 01:16:29;;;;;;;2.93;2.20;;;17.90;65.60;;;;;;5210441;28;20462;-50
2022/08/11 01:19:03;;;;;;;3.43;1.70;;;17.90;66.10;;;;;;5203112;28;20418;-50
2022/08/11 01:21:45;;;;;;;3.13;2.23;;;17.80;66.70;;;;;;5194046;28;20876;-50
2022/08/11 01:24:35;;;;;;;3.17;1.63;;;17.80;67.50;;;;;;5207162;28;20482;-49
2022/08/11 01:27:12;;;;;;;2.20;2.10;;;17.70;68.50;;;;;;5200626;28;20910;-49
2022/08/11 01:30:29;;;;;;;7.23;2.03;;;17.70;69.00;;;;;;5197450;28;20442;-51
2022/08/11 01:33:24;;;;;;;2.03;1.80;;;17.60;69.90;;;;;;5197862;28;20450;-51
2022/08/11 01:36:24;;;;;;;2.10;1.47;;;17.60;70.90;;;;;;5193350;28;21042;-51
2022/08/11 01:39:30;;;;;;;2.10;2.00;;;17.60;71.60;;;;;;5198798;28;21223;-50
2022/08/11 01:45:51;;;;;;;4.83;2.07;;;17.60;73.00;;;;;;5198378;28;20496;-51
2022/08/11 01:48:34;;;;;;;2.87;1.60;;;17.60;73.70;;;;;;5176225;28;20438;-51
2022/08/11 01:51:36;;;;;;;1.60;1.50;;;17.50;74.40;;;;;;5198242;28;20438;-49
2022/08/11 01:54:25;;;;;;;2.33;2.00;;;17.50;75.50;;;;;;5204507;28;20444;-49
2022/08/11 01:57:28;;;;;;;5.57;2.10;;;17.40;76.80;;;;;;5202896;28;20938;-49
2022/08/11 02:00:10;;;;;;;3.07;1.93;;;17.40;77.70;;;;;;5202073;28;21007;-50
2022/08/11 02:03:11;;;;;;;2.47;2.27;;;17.30;78.90;;;;;;5192245;28;20533;-51
2022/08/11 02:09:36;;;;;;;2.07;1.90;;;17.20;81.20;;;;;;5202170;28;20494;-50
2022/08/11 02:12:14;;;;;;;3.27;2.40;;;17.20;82.00;;;;;;5196519;28;21012;-50
2022/08/11 02:15:11;;;;;;;4.17;2.13;;;17.20;82.70;;;;;;5191434;28;20961;-53
2022/08/11 02:17:59;;;;;;;2.77;2.57;;;17.30;83.40;;;;;;5198553;28;20942;-50
2022/08/11 02:23:56;;;;;;;2.30;2.13;;;17.20;84.50;;;;;;5198646;28;20445;-49
2022/08/11 02:26:35;;;;;;;2.43;2.23;;;17.30;85.20;;;;;;5192808;28;20492;-50
2022/08/11 02:29:30;;;;;;;2.37;2.17;;;17.30;85.80;;;;;;5194537;28;20481;-51
2022/08/11 02:35:13;;;;;;;2.30;2.20;;;17.20;86.80;;;;;;5194803;28;20457;-54
2022/08/11 02:38:12;;;;;;;8.70;2.60;;;17.20;87.60;;;;;;5201160;28;20914;-50
2022/08/11 02:44:12;;;;;;;3.67;2.40;;;17.10;89.60;;;;;;5197849;28;20484;-51
2022/08/11 02:46:54;;;;;;;3.70;2.53;;;17.10;90.30;;;;;;5199417;28;20419;-50
2022/08/11 02:49:54;;;;;;;3.07;2.20;;;17.10;90.60;;;;;;5196226;28;20422;-48
2022/08/11 02:52:35;;;;;;;4.10;2.17;;;17.10;90.90;;;;;;5215715;28;20512;-50
2022/08/11 02:55:05;;;;;;;2.70;2.50;;;17.10;91.00;;;;;;5200189;28;20438;-50
2022/08/11 02:57:41;;;;;;;2.63;2.47;;;17.00;91.30;;;;;;5195115;28;20934;-50
2022/08/11 03:00:15;;;;;;;2.53;2.50;;;17.00;91.80;;;;;;5198192;28;20767;-50
2022/08/11 03:02:45;;;;;;;2.37;2.23;;;17.00;91.80;;;;;;5205675;28;20474;-50
2022/08/11 03:05:36;;;;;;;2.67;2.47;;;17.00;92.10;;;;;;5202595;28;20811;-51
2022/08/11 03:08:35;;;;;;;3.60;2.70;;;17.00;92.40;;;;;;5201074;28;20181;-51
2022/08/11 03:17:46;;;;;;;7.00;2.87;;;16.90;93.20;;;;;;5194980;28;20934;-50
2022/08/11 03:20:37;;;;;;;5.60;2.97;;;16.90;93.60;;;;;;5198266;28;20494;-51
2022/08/11 03:23:30;;;;;;;3.87;3.27;;;16.90;93.70;;;;;;5192661;28;20481;-50
2022/08/11 03:26:31;;;;;;;2.77;2.60;;;16.90;94.00;;;;;;5188237;28;20900;-50
2022/08/11 03:29:34;;;;;;;2.83;2.70;;;16.90;93.80;;;;;;5197830;28;20462;-49
2022/08/11 03:32:25;;;;;;;2.80;2.70;;;16.90;94.00;;;;;;5203844;28;20461;-51
2022/08/11 03:35:00;;;;;;;3.57;3.20;;;16.80;94.30;;;;;;5197434;28;20453;-52
2022/08/11 03:38:09;;;;;;;2.57;2.37;;;16.80;94.50;;;;;;5194784;28;20437;-49
2022/08/11 03:44:21;;;;;;;4.87;2.97;;;16.80;94.90;;;;;;5199945;28;20507;-48
2022/08/11 03:47:13;;;;;;;4.73;2.90;;;16.80;95.00;;;;;;5220118;28;20830;-49
2022/08/11 03:50:26;;;;;;;3.60;2.60;;;16.80;95.30;;;;;;5211331;28;20432;-50
2022/08/11 03:53:13;;;;;;;11.70;3.40;;;16.80;95.40;;;;;;5146434;28;20501;-50
2022/08/11 03:55:56;;;;;;;3.10;2.90;;;16.80;95.60;;;;;;5189010;28;20439;-51
2022/08/11 03:58:58;;;;;;;5.93;2.73;;;16.80;95.60;;;;;;5197209;28;20465;-51
2022/08/11 04:01:54;;;;;;;12.53;2.40;;;16.80;95.70;;;;;;5195263;28;20549;-51
2022/08/11 04:04:34;;;;;;;2.80;2.60;;;16.80;95.60;;;;;;5200697;28;20556;-49
2022/08/11 04:07:30;;;;;;;3.70;3.00;;;16.80;95.60;;;;;;5214911;28;20434;-49
2022/08/11 04:10:35;;;;;;;6.47;2.60;;;16.80;95.20;;;;;;5193861;28;20438;-50
2022/08/11 04:13:30;;;;;;;2.60;2.50;;;16.90;95.00;;;;;;5222997;28;20711;-50
2022/08/11 04:16:38;;;;;;;6.80;3.03;;;16.90;94.80;;;;;;5214531;28;20442;-49
2022/08/11 04:19:35;;;;;;;5.57;3.30;;;16.90;94.60;;;;;;5208539;28;20442;-49
2022/08/11 04:22:26;;;;;;;4.87;2.70;;;17.00;94.60;;;;;;5200748;28;20494;-50
2022/08/11 04:25:44;;;;;;;3.93;2.60;;;17.00;94.40;;;;;;5202513;28;20527;-49
2022/08/11 04:28:41;;;;;;;4.20;2.93;;;17.10;94.20;;;;;;5179796;28;20438;-51
2022/08/11 04:31:19;;;;;;;2.80;2.70;;;17.10;93.80;;;;;;5199957;28;20432;-51
2022/08/11 04:34:07;;;;;;;4.83;2.70;;;17.10;93.70;;;;;;5192334;28;20434;-49
2022/08/11 04:40:16;;;;;;;3.70;3.30;;;17.20;93.40;;;;;;5212573;28;20496;-50
2022/08/11 04:46:25;;;;;;;9.10;3.33;;;17.30;92.80;;;;;;5197928;28;20470;-49
2022/08/11 05:02:30;;;;;;;12.83;3.63;;;18.50;88.70;;;;;;5180807;28;22335;-48
2022/08/11 05:05:38;;;;;;;9.10;3.93;;;18.60;87.50;;;;;;5200467;28;20470;-48
2022/08/11 05:08:14;;;;;;;13.60;5.27;;;18.70;84.80;;;;;;5198058;28;20439;-49
2022/08/11 05:11:14;;;;;;;11.47;3.90;;;18.80;83.40;;;;;;5199826;28;20937;-50
2022/08/11 05:34:54;;;;;;;6.37;3.60;;;27.90;45.00;;;;;;5203999;28;20507;-49
2022/08/11 05:37:33;;;;;;;4.90;3.97;;;29.10;41.40;;;;;;5200034;28;20521;-49
2022/08/11 05:57:29;;;;;;;10.13;3.30;;;33.10;31.70;;;;;;5202269;28;20425;-50
2022/08/11 06:00:08;;;;;;;7.30;3.67;;;33.70;30.90;;;;;;5202353;28;20445;-51
2022/08/11 06:02:50;;;;;;;4.30;4.00;;;34.40;30.00;;;;;;5199389;28;20476;-50
2022/08/11 06:05:22;;;;;;;3.40;3.20;;;35.20;29.40;;;;;;5202504;28;20332;-51
2022/08/11 06:07:54;;;;;;;7.03;3.87;;;35.60;28.30;;;;;;5203289;28;20179;-49
2022/08/11 06:10:32;;;;;;;5.30;3.10;;;35.70;27.90;;;;;;5196110;28;20191;-50
2022/08/11 06:13:05;;;;;;;3.00;2.80;;;36.20;27.90;;;;;;5202946;28;20664;-49
2022/08/11 06:15:50;;;;;;;7.47;3.33;;;36.50;27.00;;;;;;5202018;28;20880;-50
2022/08/11 06:18:22;;;;;;;2.85;2.60;;;36.50;27.40;;;;;;5198832;28;20320;-51
2022/08/11 06:20:57;;;;;;;8.88;3.60;;;37.10;27.30;;;;;;5195388;28;20262;-48
2022/08/11 06:23:32;;;;;;;4.63;3.33;;;38.00;26.20;;;;;;5204326;28;20670;-50
2022/08/11 06:26:09;;;;;;;3.97;3.63;;;38.60;25.20;;;;;;5200785;28;20183;-51
2022/08/11 06:28:45;;;;;;;4.40;3.92;;;38.60;25.40;;;;;;5215596;28;20175;-51
2022/08/11 06:31:19;;;;;;;6.20;2.83;;;38.60;24.70;;;;;;5200145;28;20182;-51
2022/08/11 06:34:10;;;;;;;10.30;3.08;;;38.30;25.30;;;;;;5208197;28;20178;-50
2022/08/11 06:36:55;;;;;;;3.25;2.95;;;38.70;25.40;;;;;;5210043;28;20673;-50
2022/08/11 06:39:43;;;;;;;9.18;3.67;;;39.30;24.90;;;;;;5199562;28;20182;-51
2022/08/11 06:42:32;;;;;;;8.93;3.65;;;40.00;24.20;;;;;;5209094;28;20206;-50
2022/08/11 06:45:14;;;;;;;5.40;3.47;;;40.50;24.00;;;;;;5197782;28;20281;-50
2022/08/11 06:47:46;;;;;;;6.53;3.90;;;39.80;23.40;;;;;;5209784;28;20189;-49
2022/08/11 06:53:16;;;;;;;8.65;3.45;;;38.30;24.60;;;;;;5205784;28;20724;-51
2022/08/11 07:01:47;;;;;;;4.65;3.20;;;39.80;24.00;;;;;;5210779;28;20207;-50
2022/08/11 07:04:43;;;;;;;13.27;3.20;;;40.50;23.60;;;;;;5203150;28;20338;-50
2022/08/11 07:16:03;;;;;;;3.00;2.55;;;42.10;22.30;;;;;;5204258;28;20195;-49
2022/08/11 07:30:10;;;;;;;7.13;2.88;;;42.40;21.80;;;;;;5205550;28;20573;-52
2022/08/11 07:32:50;;;;;;;4.85;3.03;;;42.70;21.80;;;;;;5209019;28;20215;-50
2022/08/11 07:35:42;;;;;;;4.88;2.33;;;42.80;21.50;;;;;;5203366;28;20240;-49
2022/08/11 07:38:42;;;;;;;3.22;2.55;;;42.40;21.60;;;;;;5205676;28;20207;-50
2022/08/11 07:41:15;;;;;;;3.90;2.60;;;41.50;22.50;;;;;;5201715;28;20234;-50
2022/08/11 07:43:50;;;;;;;6.65;2.50;;;41.20;22.30;;;;;;5200152;28;20179;-50
2022/08/11 07:54:51;;;;;;;6.07;3.83;;;42.30;21.80;;;;;;5199449;28;20202;-53
2022/08/11 08:20:03;;;;;;;3.13;2.58;;;43.10;21.10;;;;;;5198681;28;20186;-50
2022/08/11 08:22:35;;;;;;;3.38;2.90;;;42.80;21.00;;;;;;5205289;28;20294;-53
2022/08/11 08:25:07;;;;;;;6.88;2.05;;;42.80;21.30;;;;;;5211003;28;20212;-49
2022/08/11 08:27:39;;;;;;;3.35;2.97;;;42.90;20.90;;;;;;5199579;28;20186;-50
2022/08/11 08:33:02;;;;;;;2.28;2.08;;;42.30;21.10;;;;;;5203945;28;20265;-54
2022/08/11 08:35:35;;;;;;;2.55;2.45;;;42.20;21.20;;;;;;5195387;28;20171;-49
2022/08/11 08:38:06;;;;;;;3.20;2.20;;;41.80;21.00;;;;;;5212666;28;20190;-51
2022/08/11 08:40:41;;;;;;;3.03;2.75;;;40.20;22.20;;;;;;5201829;28;20647;-51
2022/08/11 08:43:16;;;;;;;2.08;2.00;;;39.00;22.90;;;;;;5199697;28;20221;-49
2022/08/11 08:45:46;;;;;;;2.40;2.20;;;37.90;24.30;;;;;;5205156;28;20198;-50
2022/08/11 08:48:20;;;;;;;6.82;2.08;;;38.10;24.40;;;;;;5203147;28;20187;-52
2022/08/11 08:53:52;;;;;;;2.28;2.28;;;37.60;24.40;;;;;;5203450;28;20222;-51
2022/08/11 08:56:27;;;;;;;7.05;2.13;;;36.60;25.90;;;;;;5198723;28;20178;-51
2022/08/11 08:59:00;;;;;;;6.30;2.38;;;36.40;25.90;;;;;;5203677;28;20182;-49
2022/08/11 09:01:39;;;;;;;7.00;2.78;;;35.20;26.40;;;;;;5200020;28;20207;-50
2022/08/11 09:04:11;;;;;;;3.03;2.83;;;34.70;27.30;;;;;;5196342;28;20217;-50
2022/08/11 09:06:42;;;;;;;2.33;2.13;;;33.80;27.80;;;;;;5204807;28;20187;-50
2022/08/11 09:09:13;;;;;;;3.07;2.53;;;33.00;28.90;;;;;;5203103;28;20180;-50
2022/08/11 09:11:49;;;;;;;3.30;2.83;;;32.20;30.10;;;;;;5193888;28;20538;-50
2022/08/11 09:15:00;;;;;;;3.27;2.23;;;31.50;30.90;;;;;;5180536;28;20197;-50
2022/08/11 09:17:47;;;;;;;3.23;2.93;;;30.80;31.90;;;;;;5198652;28;20504;-55
2022/08/11 09:20:20;;;;;;;3.30;3.10;;;30.50;32.30;;;;;;5218182;28;20547;-49
2022/08/11 09:28:38;;;;;;;2.20;1.60;;;29.80;33.10;;;;;;5206310;28;20445;-49
2022/08/11 09:31:13;;;;;;;2.27;2.10;;;29.30;31.90;;;;;;5203461;28;20766;-50
2022/08/11 09:33:44;;;;;;;7.33;1.80;;;28.90;32.50;;;;;;5207154;28;20604;-49
2022/08/11 09:42:02;;;;;;;11.27;1.90;;;28.40;34.40;;;;;;5196776;28;20466;-48
2022/08/11 09:44:49;;;;;;;2.73;2.40;;;28.40;34.50;;;;;;5200860;28;20516;-50
2022/08/11 09:47:30;;;;;;;5.13;3.10;;;28.30;34.60;;;;;;5196372;28;20522;-50
2022/08/11 09:50:02;;;;;;;4.27;1.97;;;28.10;34.80;;;;;;5203267;28;20422;-48
2022/08/11 09:52:38;;;;;;;1.90;1.80;;;28.10;34.70;;;;;;5200547;28;20775;-49
2022/08/11 09:55:12;;;;;;;2.60;2.50;;;28.30;35.10;;;;;;5195571;28;20483;-50
2022/08/11 10:00:39;;;;;;;2.10;1.93;;;28.50;34.40;;;;;;5196092;28;20462;-52
2022/08/11 10:03:14;;;;;;;3.27;2.43;;;28.60;34.00;;;;;;5193702;28;20485;-49
2022/08/11 10:08:46;;;;;;;1.87;1.77;;;28.80;33.70;;;;;;5202694;28;20505;-50
2022/08/11 10:11:22;;;;;;;1.80;1.70;;;29.00;33.20;;;;;;5198721;28;20433;-49
2022/08/11 10:16:44;;;;;;;5.17;2.60;;;29.40;32.70;;;;;;5192536;28;20493;-50
2022/08/11 10:19:18;;;;;;;5.83;2.17;;;28.90;32.80;;;;;;5190137;28;20435;-49
2022/08/11 10:27:33;;;;;;;6.23;2.10;;;28.40;32.30;;;;;;5186535;28;20427;-52
2022/08/11 10:35:47;;;;;;;4.20;2.27;;;27.90;33.50;;;;;;5208216;28;20417;-50
2022/08/11 10:38:17;;;;;;;2.30;2.00;;;27.80;33.30;;;;;;5204686;28;20531;-50
2022/08/11 10:43:01;;;;;;;1.77;1.67;;;28.00;32.90;;;;;;5202365;28;20520;-50
2022/08/11 10:43:41;;;;;;;17.83;3.30;;;28.20;33.00;;;;;;5192914;28;20184;-50
2022/08/11 10:49:02;;;;;;;2.20;2.07;;;28.40;32.80;;;;;;5197137;28;20588;-51
2022/08/11 11:00:14;;;;;;;2.17;2.07;;;27.90;33.40;;;;;;5203019;28;20424;-51
2022/08/11 11:02:46;;;;;;;2.70;2.37;;;27.80;33.90;;;;;;5197814;28;21008;-50
2022/08/11 11:05:44;;;;;;;2.77;2.07;;;27.80;33.50;;;;;;5204714;28;20465;-50
2022/08/11 11:11:09;;;;;;;2.00;1.93;;;28.40;32.60;;;;;;5196418;28;20460;-50
2022/08/11 11:19:24;;;;;;;2.37;2.23;;;29.00;32.30;;;;;;5203963;28;20438;-49
2022/08/11 11:22:36;;;;;;;3.13;2.07;;;28.90;31.50;;;;;;5203053;28;20450;-49
2022/08/11 11:25:19;;;;;;;3.97;1.93;;;28.70;32.10;;;;;;5202082;28;20462;-51
2022/08/11 11:27:59;;;;;;;2.07;1.87;;;28.60;32.20;;;;;;5199382;28;20807;-49
2022/08/11 11:31:21;;;;;;;4.37;2.57;;;28.40;32.10;;;;;;5206244;28;20429;-48
2022/08/11 11:34:18;;;;;;;5.10;2.50;;;28.40;32.50;;;;;;5212120;28;20522;-50
2022/08/11 11:36:53;;;;;;;2.60;2.40;;;28.30;32.30;;;;;;5203369;28;20426;-51
2022/08/11 11:39:26;;;;;;;2.10;1.87;;;28.20;32.40;;;;;;5197876;28;20487;-49
2022/08/11 11:42:03;;;;;;;2.30;1.77;;;28.20;32.90;;;;;;5203874;28;20481;-51
2022/08/11 11:44:38;;;;;;;1.93;1.83;;;28.10;32.70;;;;;;5200726;28;20512;-50
2022/08/11 11:47:12;;;;;;;1.83;1.73;;;28.10;32.80;;;;;;5203098;28;20449;-49
2022/08/11 11:49:43;;;;;;;2.57;2.47;;;28.20;32.70;;;;;;5200084;28;20514;-49
2022/08/11 11:52:17;;;;;;;1.67;1.60;;;28.40;32.70;;;;;;5200262;28;20534;-48
2022/08/11 11:54:52;;;;;;;1.90;1.80;;;28.50;32.60;;;;;;5211020;28;21000;-50
2022/08/11 12:03:09;;;;;;;2.40;2.27;;;28.50;32.20;;;;;;5192499;28;20465;-49
2022/08/11 12:05:42;;;;;;;2.13;2.03;;;28.50;33.00;;;;;;5196391;28;20867;-50
2022/08/11 12:08:15;;;;;;;2.03;1.93;;;28.60;32.50;;;;;;5201554;28;20447;-51
2022/08/11 12:13:39;;;;;;;3.60;2.30;;;28.60;31.50;;;;;;5202863;28;20603;-51
2022/08/11 12:13:45;;;;;;;1.70;1.60;;;28.70;31.50;;;;;;5204412;28;20636;-51
2022/08/11 12:16:19;;;;;;;2.40;1.33;;;28.40;31.30;;;;;;5207940;28;20469;-52
2022/08/11 12:18:53;;;;;;;1.80;1.80;;;28.30;31.70;;;;;;5212889;28;20446;-49
2022/08/11 12:21:26;;;;;;;2.53;2.33;;;28.20;31.40;;;;;;5201880;28;20862;-50
2022/08/11 12:29:39;;;;;;;1.70;1.60;;;28.30;32.00;;;;;;5200622;28;20430;-50
2022/08/11 12:32:10;;;;;;;4.80;2.60;;;28.40;32.00;;;;;;5210518;28;20449;-51
2022/08/11 12:34:41;;;;;;;5.23;2.30;;;28.40;31.80;;;;;;5207132;28;20222;-50
2022/08/11 12:37:15;;;;;;;3.33;2.20;;;28.40;32.00;;;;;;5187671;28;20458;-50
2022/08/11 12:45:28;;;;;;;1.70;1.60;;;28.80;31.40;;;;;;5199439;28;20474;-49
2022/08/11 12:54:17;;;;;;;4.53;2.33;;;28.50;31.30;;;;;;5201593;28;20517;-51
2022/08/11 13:05:32;;;;;;;1.53;1.53;;;28.60;31.60;;;;;;5197402;28;20857;-49
2022/08/11 13:08:03;;;;;;;26.70;2.70;;;28.70;30.90;;;;;;5197799;28;20446;-49
2022/08/11 13:13:25;;;;;;;3.53;2.30;;;28.70;30.80;;;;;;5198270;28;20434;-51
2022/08/11 13:15:57;;;;;;;3.70;2.00;;;28.70;30.00;;;;;;5208972;28;20493;-49
2022/08/11 13:18:28;;;;;;;7.33;2.13;;;28.70;30.30;;;;;;5201939;28;20945;-52
2022/08/11 13:20:59;;;;;;;1.40;1.40;;;28.70;30.50;;;;;;5193661;28;20467;-49
2022/08/11 13:23:30;;;;;;;6.10;2.00;;;28.70;30.30;;;;;;5203979;28;20454;-51
2022/08/11 13:26:01;;;;;;;18.73;1.87;;;28.70;30.30;;;;;;5198504;28;20970;-49
2022/08/11 13:28:35;;;;;;;4.37;2.00;;;28.80;30.00;;;;;;5201530;28;20492;-51
2022/08/11 13:31:11;;;;;;;1.57;1.50;;;28.80;29.60;;;;;;5195637;28;20284;-51
2022/08/11 13:33:44;;;;;;;1.30;1.27;;;28.70;29.70;;;;;;5202814;28;20437;-49
2022/08/11 13:36:19;;;;;;;1.60;1.57;;;28.60;29.90;;;;;;5198251;28;20426;-50
2022/08/11 13:38:52;;;;;;;4.93;1.97;;;28.70;29.80;;;;;;5201423;28;20445;-50
2022/08/11 13:41:42;;;;;;;1.50;1.40;;;28.80;29.80;;;;;;5198316;28;20454;-49
2022/08/11 13:44:16;;;;;;;3.40;1.37;;;28.90;30.00;;;;;;5197661;28;20462;-52
2022/08/11 13:46:48;;;;;;;1.40;1.40;;;28.90;29.60;;;;;;5203808;28;20438;-48
2022/08/11 13:49:20;;;;;;;1.87;1.77;;;29.00;29.60;;;;;;5205241;28;21045;-50
2022/08/11 13:51:53;;;;;;;1.57;1.50;;;29.10;29.30;;;;;;5207698;28;20962;-49
2022/08/11 13:54:30;;;;;;;3.50;2.07;;;29.20;28.80;;;;;;5207434;28;20433;-49
2022/08/11 13:57:04;;;;;;;1.70;1.60;;;29.10;28.50;;;;;;5216808;28;20574;-50
2022/08/11 13:59:37;;;;;;;1.67;1.47;;;28.90;28.50;;;;;;5193314;28;20447;-51
2022/08/11 14:02:13;;;;;;;4.10;2.03;;;28.80;28.60;;;;;;5202329;28;20470;-50
2022/08/11 14:04:48;;;;;;;1.90;1.40;;;28.70;28.70;;;;;;5198235;28;20826;-50
2022/08/11 14:07:21;;;;;;;1.80;1.47;;;28.60;28.70;;;;;;5200703;28;20986;-50
2022/08/11 14:09:58;;;;;;;2.50;1.80;;;28.50;29.00;;;;;;5202713;28;20440;-51
2022/08/11 14:15:24;;;;;;;13.00;2.43;;;28.60;28.50;;;;;;5201470;28;20438;-53
2022/08/11 14:18:03;;;;;;;2.97;1.70;;;28.60;28.70;;;;;;5201183;28;20975;-50
2022/08/11 14:23:34;;;;;;;1.50;1.50;;;28.60;28.00;;;;;;5198275;28;20600;-50
2022/08/11 14:29:07;;;;;;;11.80;1.30;;;28.50;27.70;;;;;;5206435;28;20422;-49
2022/08/11 14:31:43;;;;;;;3.77;1.37;;;28.50;27.80;;;;;;5197976;28;20451;-53
2022/08/11 14:34:17;;;;;;;1.73;1.40;;;28.50;27.80;;;;;;5196502;28;20445;-51
2022/08/11 14:36:54;;;;;;;1.30;1.20;;;28.60;27.80;;;;;;5201185;28;20751;-51
2022/08/11 14:39:27;;;;;;;5.23;2.00;;;28.60;27.50;;;;;;5202169;28;20812;-49
2022/08/11 14:47:55;;;;;;;1.27;1.17;;;28.80;27.50;;;;;;5205344;28;20436;-50
2022/08/11 14:50:28;;;;;;;2.20;1.03;;;28.70;27.10;;;;;;5203945;28;20936;-51
2022/08/11 14:53:02;;;;;;;1.23;1.23;;;28.70;27.20;;;;;;5206075;28;20450;-51
2022/08/11 14:58:32;;;;;;;1.50;1.50;;;28.60;27.20;;;;;;5193610;28;20476;-49
2022/08/11 15:03:05;;;;;;;10.13;1.80;;;28.60;27.20;;;;;;5197470;28;20465;-49
2022/08/11 15:03:56;;;;;;;1.37;1.27;;;28.60;27.10;;;;;;5195510;28;20434;-50
2022/08/11 15:06:28;;;;;;;1.93;1.43;;;28.70;27.00;;;;;;5198798;28;20434;-51
2022/08/11 15:08:59;;;;;;;8.30;1.10;;;28.70;27.00;;;;;;5196874;28;20447;-54
2022/08/11 15:17:11;;;;;;;1.30;1.30;;;28.70;27.00;;;;;;5196261;28;20438;-52
2022/08/11 15:25:22;;;;;;;1.20;1.10;;;28.70;26.80;;;;;;5200112;28;20466;-50
2022/08/11 15:45:46;;;;;;;1.80;1.70;;;28.70;26.30;;;;;;5194942;28;21927;-54
2022/08/11 15:48:16;;;;;;;3.00;1.20;;;28.60;26.60;;;;;;5200158;28;20440;-54
2022/08/11 15:50:53;;;;;;;2.63;1.23;;;28.60;26.40;;;;;;5206121;28;20604;-52
2022/08/11 15:53:37;;;;;;;1.47;1.37;;;28.60;26.40;;;;;;5198951;28;20450;-53
2022/08/11 15:56:09;;;;;;;2.07;0.90;;;28.50;26.40;;;;;;5201049;28;20449;-53
2022/08/11 16:04:33;;;;;;;2.10;1.20;;;28.40;26.50;;;;;;5194097;28;20479;-49
2022/08/11 16:07:13;;;;;;;1.67;1.57;;;28.40;26.10;;;;;;5195800;28;20869;-49
2022/08/11 16:10:20;;;;;;;4.00;1.67;;;28.40;26.20;;;;;;5205208;28;20426;-50
2022/08/11 16:18:40;;;;;;;4.33;1.40;;;28.30;26.10;;;;;;5199885;28;20450;-55
2022/08/11 16:21:25;;;;;;;2.50;1.33;;;28.30;26.20;;;;;;5203846;28;20447;-52
2022/08/11 16:23:58;;;;;;;1.30;1.30;;;28.20;26.50;;;;;;5200576;28;20443;-53
2022/08/11 16:26:31;;;;;;;3.27;1.13;;;28.20;26.30;;;;;;5200350;28;20992;-51
2022/08/11 16:29:02;;;;;;;19.67;1.27;;;28.20;26.40;;;;;;5195712;28;20435;-55
2022/08/11 16:31:35;;;;;;;2.73;1.63;;;28.20;26.30;;;;;;5183622;28;20509;-53
2022/08/11 16:38:33;;;;;;;2.53;1.13;;;28.20;26.30;;;;;;5206793;28;20547;-52
2022/08/11 16:39:50;;;;;;;2.03;1.80;;;28.20;26.20;;;;;;5192523;28;20524;-51
2022/08/11 16:48:01;;;;;;;1.03;0.80;;;28.00;26.20;;;;;;5191534;28;21228;-53
2022/08/11 16:50:32;;;;;;;1.23;1.13;;;27.90;26.20;;;;;;5195644;28;20506;-51
2022/08/11 16:53:04;;;;;;;1.43;1.00;;;28.00;26.50;;;;;;5193369;28;20466;-51
2022/08/11 16:55:36;;;;;;;1.10;1.00;;;28.00;26.60;;;;;;5198224;28;20462;-50
2022/08/11 17:00:58;;;;;;;1.87;1.10;;;28.00;26.60;;;;;;5200967;28;20529;-51
2022/08/11 17:14:59;;;;;;;3.00;2.20;;;27.70;26.40;;;;;;5190005;28;20568;-49
2022/08/11 17:17:34;;;;;;;2.30;2.10;;;27.70;26.30;;;;;;5199303;28;20437;-51
2022/08/11 17:20:09;;;;;;;2.77;1.70;;;27.60;26.20;;;;;;5194306;28;20511;-52
2022/08/11 17:25:31;;;;;;;9.60;2.33;;;27.50;26.40;;;;;;5197791;28;20996;-49
2022/08/11 17:28:03;;;;;;;1.07;1.07;;;27.50;26.70;;;;;;5200815;28;20430;-55
2022/08/11 17:36:15;;;;;;;1.47;1.37;;;27.40;26.80;;;;;;5195569;28;20512;-50
2022/08/11 17:38:47;;;;;;;4.13;1.53;;;27.30;26.60;;;;;;5200771;28;20572;-50
2022/08/11 17:49:49;;;;;;;0.97;0.97;;;27.10;27.40;;;;;;5197775;28;20446;-52
2022/08/11 18:00:54;;;;;;;1.67;1.43;;;26.90;28.00;;;;;;5195450;28;20422;-50
2022/08/11 18:03:33;;;;;;;2.37;1.40;;;26.90;28.10;;;;;;5192440;28;20688;-51
2022/08/11 18:06:07;;;;;;;1.80;1.00;;;26.80;28.20;;;;;;5194965;28;20981;-56
